EAGO2: Mountain Fork Riv, Eagletown,

Data processed at Fri Jan 05 2018 23:39


All information presented herein is the property of the government of the United States of America and may be revised or deleted at any time without prior notice.
Dissemination of this information without the expressed written consent of the Public Affairs Office, Tulsa District U.S. Army Corps of Engineers is strictly prohibited.
These data are gathered electronically and, as presented, have not undergone any form of quality control. These data are not guaranteed to be valid or correct.
Go to home page.
Go to station list.

Upstream stations:

Downstream station:
Previous Day
Next Day
Current Day
    
SHEF ID:       EAGO2     Mountain Fork near Eagletown, OK
STATION TYPE:  

               PRECIP     STAGE  RIV-FLOW  BAT-LOAD
                   in        ft       cfs      volt
              Ccp-Rev   Ccp-Rev   Ccp-Rev   Ccp-Rev
(US/Central)
01/03 00:00      ----      2.12       677     12.73
01/03 01:00      ----      2.02       620     12.73
01/03 02:00      ----      1.93       569     12.73
01/03 03:00      ----      1.85       526     12.73
01/03 04:00      ----      1.77       485     12.73
01/03 05:00      ----      1.70       449     12.65
01/03 06:00      ----      1.64       420     12.65
01/03 07:00      ----      1.58       391     12.65
01/03 08:00      ----      1.53       368     12.65
01/03 09:00      ----      1.48       346     12.65
01/03 10:00      ----      1.68       439     12.73
01/03 11:00      ----      2.75      1088     12.97
01/03 12:00      ----      3.51      1683     14.00
01/03 13:00      ----      3.64      1795     13.92
01/03 14:00      ----      3.53      1700     13.84
01/03 15:00      ----      3.33      1532      ----
01/03 16:00      ----      3.14      1380     13.68
01/03 17:00      ----      2.94      1226     13.29
01/03 18:00      ----      2.78      1109     13.05
01/03 19:00      ----      2.66      1024     13.05
01/03 20:00      ----      3.07      1325     12.97
01/03 21:00      ----      3.86      1991     12.97
01/03 22:00      ----      4.32      2428     12.97
01/03 23:00      ----      4.37      2478     12.89